sensor_id;sensor_type;location;lat;lon;timestamp;temperature;humidity
12720;DHT22;6424;48.520;11.228;2024-01-06T00:01:55;5.20;99.90
12720;DHT22;6424;48.520;11.228;2024-01-06T00:04:39;5.20;99.90
12720;DHT22;6424;48.520;11.228;2024-01-06T00:07:23;5.20;99.90
12720;DHT22;6424;48.520;11.228;2024-01-06T00:10:07;5.20;99.90
12720;DHT22;6424;48.520;11.228;2024-01-06T00:12:52;5.20;99.90
12720;DHT22;6424;48.520;11.228;2024-01-06T00:15:36;5.20;99.90
12720;DHT22;6424;48.520;11.228;2024-01-06T00:18:21;5.20;99.90
12720;DHT22;6424;48.520;11.228;2024-01-06T00:21:08;5.20;99.90
12720;DHT22;6424;48.520;11.228;2024-01-06T00:23:52;5.20;99.90
12720;DHT22;6424;48.520;11.228;2024-01-06T00:26:37;5.20;99.90
12720;DHT22;6424;48.520;11.228;2024-01-06T00:29:21;5.20;99.90
12720;DHT22;6424;48.520;11.228;2024-01-06T00:32:05;5.30;99.90
12720;DHT22;6424;48.520;11.228;2024-01-06T00:34:50;5.20;99.90
12720;DHT22;6424;48.520;11.228;2024-01-06T00:37:34;5.30;99.90
12720;DHT22;6424;48.520;11.228;2024-01-06T00:40:18;5.30;99.90
12720;DHT22;6424;48.520;11.228;2024-01-06T00:43:04;5.30;99.90
12720;DHT22;6424;48.520;11.228;2024-01-06T00:45:48;5.30;99.90
12720;DHT22;6424;48.520;11.228;2024-01-06T00:48:33;5.30;99.90
12720;DHT22;6424;48.520;11.228;2024-01-06T00:51:17;5.30;99.90
12720;DHT22;6424;48.520;11.228;2024-01-06T00:54:01;5.30;99.90
12720;DHT22;6424;48.520;11.228;2024-01-06T00:56:45;5.30;99.90
12720;DHT22;6424;48.520;11.228;2024-01-06T00:59:29;5.30;99.90
12720;DHT22;6424;48.520;11.228;2024-01-06T01:02:13;5.30;99.90
12720;DHT22;6424;48.520;11.228;2024-01-06T01:04:58;5.30;99.90
12720;DHT22;6424;48.520;11.228;2024-01-06T01:07:42;5.30;99.90
12720;DHT22;6424;48.520;11.228;2024-01-06T01:10:26;5.30;99.90
12720;DHT22;6424;48.520;11.228;2024-01-06T01:13:10;5.30;99.90
12720;DHT22;6424;48.520;11.228;2024-01-06T01:15:55;5.30;99.90
12720;DHT22;6424;48.520;11.228;2024-01-06T01:18:40;5.20;99.90
12720;DHT22;6424;48.520;11.228;2024-01-06T01:21:24;5.10;99.90
12720;DHT22;6424;48.520;11.228;2024-01-06T01:24:08;5.00;99.90
12720;DHT22;6424;48.520;11.228;2024-01-06T01:26:53;5.00;99.90
12720;DHT22;6424;48.520;11.228;2024-01-06T01:29:37;4.90;99.90
12720;DHT22;6424;48.520;11.228;2024-01-06T01:32:21;4.90;99.90
12720;DHT22;6424;48.520;11.228;2024-01-06T01:35:06;4.90;99.90
12720;DHT22;6424;48.520;11.228;2024-01-06T01:37:50;4.80;99.90
12720;DHT22;6424;48.520;11.228;2024-01-06T01:40:34;4.90;99.90
12720;DHT22;6424;48.520;11.228;2024-01-06T01:43:19;4.90;99.90
12720;DHT22;6424;48.520;11.228;2024-01-06T01:46:03;4.90;99.90
12720;DHT22;6424;48.520;11.228;2024-01-06T01:48:48;4.90;99.90
12720;DHT22;6424;48.520;11.228;2024-01-06T01:51:34;4.90;99.90
12720;DHT22;6424;48.520;11.228;2024-01-06T01:54:19;5.00;99.90
12720;DHT22;6424;48.520;11.228;2024-01-06T01:57:03;5.00;99.90
12720;DHT22;6424;48.520;11.228;2024-01-06T01:59:48;5.00;99.90
12720;DHT22;6424;48.520;11.228;2024-01-06T02:02:33;4.90;99.90
12720;DHT22;6424;48.520;11.228;2024-01-06T02:05:17;4.90;99.90
12720;DHT22;6424;48.520;11.228;2024-01-06T02:08:02;4.90;99.90
12720;DHT22;6424;48.520;11.228;2024-01-06T02:10:46;4.90;99.90
12720;DHT22;6424;48.520;11.228;2024-01-06T02:13:35;4.90;99.90
12720;DHT22;6424;48.520;11.228;2024-01-06T02:16:20;4.90;99.90
12720;DHT22;6424;48.520;11.228;2024-01-06T02:19:05;4.90;99.90
12720;DHT22;6424;48.520;11.228;2024-01-06T02:21:53;4.90;99.90
12720;DHT22;6424;48.520;11.228;2024-01-06T02:24:37;4.90;99.90
12720;DHT22;6424;48.520;11.228;2024-01-06T02:27:21;4.90;99.90
12720;DHT22;6424;48.520;11.228;2024-01-06T02:30:06;4.90;99.90
12720;DHT22;6424;48.520;11.228;2024-01-06T02:32:51;4.90;99.90
12720;DHT22;6424;48.520;11.228;2024-01-06T02:35:36;4.90;99.90
12720;DHT22;6424;48.520;11.228;2024-01-06T02:38:20;4.90;99.90
12720;DHT22;6424;48.520;11.228;2024-01-06T02:41:05;4.90;99.90
12720;DHT22;6424;48.520;11.228;2024-01-06T02:43:49;4.90;99.90
12720;DHT22;6424;48.520;11.228;2024-01-06T02:46:34;4.90;99.90
12720;DHT22;6424;48.520;11.228;2024-01-06T02:49:18;4.90;99.90
12720;DHT22;6424;48.520;11.228;2024-01-06T02:52:02;4.90;99.90
12720;DHT22;6424;48.520;11.228;2024-01-06T02:54:47;4.90;99.90
12720;DHT22;6424;48.520;11.228;2024-01-06T02:57:31;4.90;99.90
12720;DHT22;6424;48.520;11.228;2024-01-06T03:00:15;4.90;99.90
12720;DHT22;6424;48.520;11.228;2024-01-06T03:03:00;5.00;99.90
12720;DHT22;6424;48.520;11.228;2024-01-06T03:05:44;4.90;99.90
12720;DHT22;6424;48.520;11.228;2024-01-06T03:08:28;4.90;99.90
12720;DHT22;6424;48.520;11.228;2024-01-06T03:11:12;4.80;99.90
12720;DHT22;6424;48.520;11.228;2024-01-06T03:13:57;4.80;99.90
12720;DHT22;6424;48.520;11.228;2024-01-06T03:16:41;4.80;99.90
12720;DHT22;6424;48.520;11.228;2024-01-06T03:19:25;4.70;99.90
12720;DHT22;6424;48.520;11.228;2024-01-06T03:22:11;4.70;99.90
12720;DHT22;6424;48.520;11.228;2024-01-06T03:24:56;4.70;99.90
12720;DHT22;6424;48.520;11.228;2024-01-06T03:27:40;4.70;99.90
12720;DHT22;6424;48.520;11.228;2024-01-06T03:30:24;4.70;99.90
12720;DHT22;6424;48.520;11.228;2024-01-06T03:33:08;4.70;99.90
12720;DHT22;6424;48.520;11.228;2024-01-06T03:35:53;4.70;99.90
12720;DHT22;6424;48.520;11.228;2024-01-06T03:38:37;4.70;99.90
12720;DHT22;6424;48.520;11.228;2024-01-06T03:41:22;4.60;99.90
12720;DHT22;6424;48.520;11.228;2024-01-06T03:44:06;4.50;99.90
12720;DHT22;6424;48.520;11.228;2024-01-06T03:46:50;4.50;99.90
12720;DHT22;6424;48.520;11.228;2024-01-06T03:49:34;4.40;99.90
12720;DHT22;6424;48.520;11.228;2024-01-06T03:52:18;4.40;99.90
12720;DHT22;6424;48.520;11.228;2024-01-06T03:55:05;4.40;99.90
12720;DHT22;6424;48.520;11.228;2024-01-06T03:57:49;4.30;99.90
12720;DHT22;6424;48.520;11.228;2024-01-06T04:00:33;4.20;99.90
12720;DHT22;6424;48.520;11.228;2024-01-06T04:03:18;4.10;99.90
12720;DHT22;6424;48.520;11.228;2024-01-06T04:06:02;4.10;99.90
12720;DHT22;6424;48.520;11.228;2024-01-06T04:08:47;4.00;99.90
12720;DHT22;6424;48.520;11.228;2024-01-06T04:11:31;4.00;99.90
12720;DHT22;6424;48.520;11.228;2024-01-06T04:14:15;3.90;99.90
12720;DHT22;6424;48.520;11.228;2024-01-06T04:16:59;3.90;99.90
12720;DHT22;6424;48.520;11.228;2024-01-06T04:19:43;3.90;99.90
12720;DHT22;6424;48.520;11.228;2024-01-06T04:22:28;3.90;99.90
12720;DHT22;6424;48.520;11.228;2024-01-06T04:25:12;4.00;99.90
12720;DHT22;6424;48.520;11.228;2024-01-06T04:27:56;4.00;99.90
12720;DHT22;6424;48.520;11.228;2024-01-06T04:30:40;4.00;99.90
12720;DHT22;6424;48.520;11.228;2024-01-06T04:33:24;4.10;99.90
12720;DHT22;6424;48.520;11.228;2024-01-06T04:36:08;4.20;99.90
12720;DHT22;6424;48.520;11.228;2024-01-06T04:38:53;4.20;99.90
12720;DHT22;6424;48.520;11.228;2024-01-06T04:41:39;4.10;99.90
12720;DHT22;6424;48.520;11.228;2024-01-06T04:44:24;4.10;99.90
12720;DHT22;6424;48.520;11.228;2024-01-06T04:47:08;4.00;99.90
12720;DHT22;6424;48.520;11.228;2024-01-06T04:49:52;3.90;99.90
12720;DHT22;6424;48.520;11.228;2024-01-06T04:52:36;3.90;99.90
12720;DHT22;6424;48.520;11.228;2024-01-06T04:55:20;3.90;99.90
12720;DHT22;6424;48.520;11.228;2024-01-06T04:58:04;3.80;99.90
12720;DHT22;6424;48.520;11.228;2024-01-06T05:00:49;3.70;99.90
12720;DHT22;6424;48.520;11.228;2024-01-06T05:03:35;3.60;99.90
12720;DHT22;6424;48.520;11.228;2024-01-06T05:06:19;3.60;99.90
12720;DHT22;6424;48.520;11.228;2024-01-06T05:09:03;3.60;99.90
12720;DHT22;6424;48.520;11.228;2024-01-06T05:11:48;3.60;99.90
12720;DHT22;6424;48.520;11.228;2024-01-06T05:14:32;3.60;99.90
12720;DHT22;6424;48.520;11.228;2024-01-06T05:17:16;3.60;99.90
12720;DHT22;6424;48.520;11.228;2024-01-06T05:20:00;3.60;99.90
12720;DHT22;6424;48.520;11.228;2024-01-06T05:22:45;3.50;99.90
12720;DHT22;6424;48.520;11.228;2024-01-06T05:25:29;3.60;99.90
12720;DHT22;6424;48.520;11.228;2024-01-06T05:28:13;3.60;99.90
12720;DHT22;6424;48.520;11.228;2024-01-06T05:30:58;3.60;99.90
12720;DHT22;6424;48.520;11.228;2024-01-06T05:33:42;3.70;99.90
12720;DHT22;6424;48.520;11.228;2024-01-06T05:36:26;3.70;99.90
12720;DHT22;6424;48.520;11.228;2024-01-06T05:39:11;3.70;99.90
12720;DHT22;6424;48.520;11.228;2024-01-06T05:41:54;3.70;99.90
12720;DHT22;6424;48.520;11.228;2024-01-06T05:44:39;3.80;99.90
12720;DHT22;6424;48.520;11.228;2024-01-06T05:47:23;3.80;99.90
12720;DHT22;6424;48.520;11.228;2024-01-06T05:50:07;3.80;99.90
12720;DHT22;6424;48.520;11.228;2024-01-06T05:52:55;3.80;99.90
12720;DHT22;6424;48.520;11.228;2024-01-06T05:55:40;3.80;99.90
12720;DHT22;6424;48.520;11.228;2024-01-06T05:58:24;3.80;99.90
12720;DHT22;6424;48.520;11.228;2024-01-06T06:01:08;3.70;99.90
12720;DHT22;6424;48.520;11.228;2024-01-06T06:03:52;3.70;99.90
12720;DHT22;6424;48.520;11.228;2024-01-06T06:06:36;3.70;99.90
12720;DHT22;6424;48.520;11.228;2024-01-06T06:09:21;3.70;99.90
12720;DHT22;6424;48.520;11.228;2024-01-06T06:12:06;3.80;99.90
12720;DHT22;6424;48.520;11.228;2024-01-06T06:14:50;3.80;99.90
12720;DHT22;6424;48.520;11.228;2024-01-06T06:17:35;3.80;99.90
12720;DHT22;6424;48.520;11.228;2024-01-06T06:20:20;3.80;99.90
12720;DHT22;6424;48.520;11.228;2024-01-06T06:23:04;3.80;99.90
12720;DHT22;6424;48.520;11.228;2024-01-06T06:25:48;3.70;99.90
12720;DHT22;6424;48.520;11.228;2024-01-06T06:28:32;3.70;99.90
12720;DHT22;6424;48.520;11.228;2024-01-06T06:31:17;3.70;99.90
12720;DHT22;6424;48.520;11.228;2024-01-06T06:34:01;3.70;99.90
12720;DHT22;6424;48.520;11.228;2024-01-06T06:36:46;3.70;99.90
12720;DHT22;6424;48.520;11.228;2024-01-06T06:39:30;3.60;99.90
12720;DHT22;6424;48.520;11.228;2024-01-06T06:42:16;3.60;99.90
12720;DHT22;6424;48.520;11.228;2024-01-06T06:45:00;3.70;99.90
12720;DHT22;6424;48.520;11.228;2024-01-06T06:47:51;3.60;99.90
12720;DHT22;6424;48.520;11.228;2024-01-06T06:50:35;3.60;99.90
12720;DHT22;6424;48.520;11.228;2024-01-06T06:53:20;3.70;99.90
12720;DHT22;6424;48.520;11.228;2024-01-06T06:56:05;3.70;99.90
12720;DHT22;6424;48.520;11.228;2024-01-06T06:58:49;3.70;99.90
12720;DHT22;6424;48.520;11.228;2024-01-06T07:01:33;3.70;99.90
12720;DHT22;6424;48.520;11.228;2024-01-06T07:04:18;3.70;99.90
12720;DHT22;6424;48.520;11.228;2024-01-06T07:07:02;3.60;99.90
12720;DHT22;6424;48.520;11.228;2024-01-06T07:09:47;3.70;99.90
12720;DHT22;6424;48.520;11.228;2024-01-06T07:12:31;3.60;99.90
12720;DHT22;6424;48.520;11.228;2024-01-06T07:15:16;3.60;99.90
12720;DHT22;6424;48.520;11.228;2024-01-06T07:18:00;3.60;99.90
12720;DHT22;6424;48.520;11.228;2024-01-06T07:20:44;3.60;99.90
12720;DHT22;6424;48.520;11.228;2024-01-06T07:23:28;3.60;99.90
12720;DHT22;6424;48.520;11.228;2024-01-06T07:26:12;3.60;99.90
12720;DHT22;6424;48.520;11.228;2024-01-06T07:28:56;3.60;99.90
12720;DHT22;6424;48.520;11.228;2024-01-06T07:31:41;3.60;99.90
12720;DHT22;6424;48.520;11.228;2024-01-06T07:34:25;3.60;99.90
12720;DHT22;6424;48.520;11.228;2024-01-06T07:37:09;3.60;99.90
12720;DHT22;6424;48.520;11.228;2024-01-06T07:39:53;3.60;99.90
12720;DHT22;6424;48.520;11.228;2024-01-06T07:42:38;3.60;99.90
12720;DHT22;6424;48.520;11.228;2024-01-06T07:45:22;3.50;99.90
12720;DHT22;6424;48.520;11.228;2024-01-06T07:48:06;3.60;99.90
12720;DHT22;6424;48.520;11.228;2024-01-06T07:50:51;3.60;99.90
12720;DHT22;6424;48.520;11.228;2024-01-06T07:53:35;3.60;99.90
12720;DHT22;6424;48.520;11.228;2024-01-06T07:56:19;3.60;99.90
12720;DHT22;6424;48.520;11.228;2024-01-06T07:59:04;3.60;99.90
12720;DHT22;6424;48.520;11.228;2024-01-06T08:01:48;3.60;99.90
12720;DHT22;6424;48.520;11.228;2024-01-06T08:04:33;3.60;99.90
12720;DHT22;6424;48.520;11.228;2024-01-06T08:07:17;3.60;99.90
12720;DHT22;6424;48.520;11.228;2024-01-06T08:10:02;3.60;99.90
12720;DHT22;6424;48.520;11.228;2024-01-06T08:12:49;3.60;99.90
12720;DHT22;6424;48.520;11.228;2024-01-06T08:15:33;3.60;99.90
12720;DHT22;6424;48.520;11.228;2024-01-06T08:18:18;3.60;99.90
12720;DHT22;6424;48.520;11.228;2024-01-06T08:21:03;3.60;99.90
12720;DHT22;6424;48.520;11.228;2024-01-06T08:23:47;3.70;99.90
12720;DHT22;6424;48.520;11.228;2024-01-06T08:26:32;3.70;99.90
12720;DHT22;6424;48.520;11.228;2024-01-06T08:29:17;3.70;99.90
12720;DHT22;6424;48.520;11.228;2024-01-06T08:32:03;3.70;99.90
12720;DHT22;6424;48.520;11.228;2024-01-06T08:34:47;3.70;99.90
12720;DHT22;6424;48.520;11.228;2024-01-06T08:37:32;3.70;99.90
12720;DHT22;6424;48.520;11.228;2024-01-06T08:40:16;3.80;99.90
12720;DHT22;6424;48.520;11.228;2024-01-06T08:43:01;3.70;99.90
12720;DHT22;6424;48.520;11.228;2024-01-06T08:45:46;3.80;99.90
12720;DHT22;6424;48.520;11.228;2024-01-06T08:48:30;3.80;99.90
12720;DHT22;6424;48.520;11.228;2024-01-06T08:51:14;3.80;99.90
12720;DHT22;6424;48.520;11.228;2024-01-06T08:53:58;3.80;99.90
12720;DHT22;6424;48.520;11.228;2024-01-06T08:56:42;3.90;99.90
12720;DHT22;6424;48.520;11.228;2024-01-06T08:59:27;3.90;99.90
12720;DHT22;6424;48.520;11.228;2024-01-06T09:02:11;3.90;99.90
12720;DHT22;6424;48.520;11.228;2024-01-06T09:04:56;3.90;99.90
12720;DHT22;6424;48.520;11.228;2024-01-06T09:07:39;3.90;99.90
12720;DHT22;6424;48.520;11.228;2024-01-06T09:10:24;3.90;99.90
12720;DHT22;6424;48.520;11.228;2024-01-06T09:13:08;4.00;99.90
12720;DHT22;6424;48.520;11.228;2024-01-06T09:15:52;4.00;99.90
12720;DHT22;6424;48.520;11.228;2024-01-06T09:18:37;4.00;99.90
12720;DHT22;6424;48.520;11.228;2024-01-06T09:21:21;4.10;99.90
12720;DHT22;6424;48.520;11.228;2024-01-06T09:24:05;4.10;99.90
12720;DHT22;6424;48.520;11.228;2024-01-06T09:26:52;4.10;99.90
12720;DHT22;6424;48.520;11.228;2024-01-06T09:29:37;4.20;99.90
12720;DHT22;6424;48.520;11.228;2024-01-06T09:32:22;4.20;99.90
12720;DHT22;6424;48.520;11.228;2024-01-06T09:35:07;4.20;99.90
12720;DHT22;6424;48.520;11.228;2024-01-06T09:37:51;4.20;99.90
12720;DHT22;6424;48.520;11.228;2024-01-06T09:40:41;4.20;99.90
12720;DHT22;6424;48.520;11.228;2024-01-06T09:43:27;4.20;99.90
12720;DHT22;6424;48.520;11.228;2024-01-06T09:46:20;4.20;99.90
12720;DHT22;6424;48.520;11.228;2024-01-06T09:49:07;4.20;99.90
12720;DHT22;6424;48.520;11.228;2024-01-06T09:51:53;4.20;99.90
12720;DHT22;6424;48.520;11.228;2024-01-06T09:54:44;4.30;99.90
12720;DHT22;6424;48.520;11.228;2024-01-06T09:57:29;4.30;99.90
12720;DHT22;6424;48.520;11.228;2024-01-06T10:00:14;4.30;99.90
12720;DHT22;6424;48.520;11.228;2024-01-06T10:03:00;4.30;99.90
12720;DHT22;6424;48.520;11.228;2024-01-06T10:05:44;4.30;99.90
12720;DHT22;6424;48.520;11.228;2024-01-06T10:08:29;4.20;99.90
12720;DHT22;6424;48.520;11.228;2024-01-06T10:11:14;4.20;99.90
12720;DHT22;6424;48.520;11.228;2024-01-06T10:13:58;4.20;99.90
12720;DHT22;6424;48.520;11.228;2024-01-06T10:16:43;4.30;99.90
12720;DHT22;6424;48.520;11.228;2024-01-06T10:19:27;4.30;99.90
12720;DHT22;6424;48.520;11.228;2024-01-06T10:22:12;4.30;99.90
12720;DHT22;6424;48.520;11.228;2024-01-06T10:24:56;4.30;99.90
12720;DHT22;6424;48.520;11.228;2024-01-06T10:27:42;4.30;99.90
12720;DHT22;6424;48.520;11.228;2024-01-06T10:30:26;4.30;99.90
12720;DHT22;6424;48.520;11.228;2024-01-06T10:33:10;4.30;99.90
12720;DHT22;6424;48.520;11.228;2024-01-06T10:35:55;4.30;99.90
12720;DHT22;6424;48.520;11.228;2024-01-06T10:38:40;4.30;99.90
12720;DHT22;6424;48.520;11.228;2024-01-06T10:41:24;4.30;99.90
12720;DHT22;6424;48.520;11.228;2024-01-06T10:44:10;4.40;99.90
12720;DHT22;6424;48.520;11.228;2024-01-06T10:46:56;4.50;99.90
12720;DHT22;6424;48.520;11.228;2024-01-06T10:49:43;4.50;99.90
12720;DHT22;6424;48.520;11.228;2024-01-06T10:52:28;4.60;99.90
12720;DHT22;6424;48.520;11.228;2024-01-06T10:55:12;4.60;99.90
12720;DHT22;6424;48.520;11.228;2024-01-06T10:57:58;4.50;99.90
12720;DHT22;6424;48.520;11.228;2024-01-06T11:00:43;4.50;99.90
12720;DHT22;6424;48.520;11.228;2024-01-06T11:03:28;4.60;99.90
12720;DHT22;6424;48.520;11.228;2024-01-06T11:06:13;4.60;99.90
12720;DHT22;6424;48.520;11.228;2024-01-06T11:09:14;4.70;99.90
12720;DHT22;6424;48.520;11.228;2024-01-06T11:12:00;4.70;99.90
12720;DHT22;6424;48.520;11.228;2024-01-06T11:14:45;4.70;99.90
12720;DHT22;6424;48.520;11.228;2024-01-06T11:20:33;4.70;99.90
12720;DHT22;6424;48.520;11.228;2024-01-06T11:23:19;4.70;99.90
12720;DHT22;6424;48.520;11.228;2024-01-06T11:26:07;4.70;99.90
12720;DHT22;6424;48.520;11.228;2024-01-06T11:28:51;4.70;99.90
12720;DHT22;6424;48.520;11.228;2024-01-06T11:31:37;4.70;99.90
12720;DHT22;6424;48.520;11.228;2024-01-06T11:34:22;4.70;99.90
12720;DHT22;6424;48.520;11.228;2024-01-06T11:37:08;4.70;99.90
12720;DHT22;6424;48.520;11.228;2024-01-06T11:39:53;4.70;99.90
12720;DHT22;6424;48.520;11.228;2024-01-06T11:42:37;4.70;99.90
12720;DHT22;6424;48.520;11.228;2024-01-06T11:45:21;4.60;99.90
12720;DHT22;6424;48.520;11.228;2024-01-06T11:48:07;4.60;99.90
12720;DHT22;6424;48.520;11.228;2024-01-06T11:50:52;4.60;99.90
12720;DHT22;6424;48.520;11.228;2024-01-06T11:53:37;4.60;99.90
12720;DHT22;6424;48.520;11.228;2024-01-06T11:56:21;4.60;99.90
12720;DHT22;6424;48.520;11.228;2024-01-06T11:59:08;4.60;99.90
12720;DHT22;6424;48.520;11.228;2024-01-06T12:01:52;4.70;99.90
12720;DHT22;6424;48.520;11.228;2024-01-06T12:04:36;4.70;99.90
12720;DHT22;6424;48.520;11.228;2024-01-06T12:07:21;4.70;99.90
12720;DHT22;6424;48.520;11.228;2024-01-06T12:10:06;4.70;99.90
12720;DHT22;6424;48.520;11.228;2024-01-06T12:13:02;4.60;99.90
12720;DHT22;6424;48.520;11.228;2024-01-06T12:15:47;4.50;99.90
12720;DHT22;6424;48.520;11.228;2024-01-06T12:18:31;4.50;99.90
12720;DHT22;6424;48.520;11.228;2024-01-06T12:21:18;4.50;99.90
12720;DHT22;6424;48.520;11.228;2024-01-06T12:24:20;4.50;99.90
12720;DHT22;6424;48.520;11.228;2024-01-06T12:27:07;4.50;99.90
12720;DHT22;6424;48.520;11.228;2024-01-06T12:29:54;4.50;99.90
12720;DHT22;6424;48.520;11.228;2024-01-06T12:32:38;4.50;99.90
12720;DHT22;6424;48.520;11.228;2024-01-06T12:35:22;4.50;99.90
12720;DHT22;6424;48.520;11.228;2024-01-06T12:38:08;4.50;99.90
12720;DHT22;6424;48.520;11.228;2024-01-06T12:40:55;4.40;99.90
12720;DHT22;6424;48.520;11.228;2024-01-06T12:43:40;4.40;99.90
12720;DHT22;6424;48.520;11.228;2024-01-06T12:46:24;4.40;99.90
12720;DHT22;6424;48.520;11.228;2024-01-06T12:49:08;4.40;99.90
12720;DHT22;6424;48.520;11.228;2024-01-06T12:51:52;4.40;99.90
12720;DHT22;6424;48.520;11.228;2024-01-06T12:54:37;4.30;99.90
12720;DHT22;6424;48.520;11.228;2024-01-06T12:57:21;4.30;99.90
12720;DHT22;6424;48.520;11.228;2024-01-06T13:00:06;4.20;99.90
12720;DHT22;6424;48.520;11.228;2024-01-06T13:02:52;4.20;99.90
12720;DHT22;6424;48.520;11.228;2024-01-06T13:05:36;4.20;99.90
12720;DHT22;6424;48.520;11.228;2024-01-06T13:08:21;4.20;99.90
12720;DHT22;6424;48.520;11.228;2024-01-06T13:11:06;4.30;99.90
12720;DHT22;6424;48.520;11.228;2024-01-06T13:13:51;4.30;99.90
12720;DHT22;6424;48.520;11.228;2024-01-06T13:16:35;4.20;99.90
12720;DHT22;6424;48.520;11.228;2024-01-06T13:19:20;4.10;99.90
12720;DHT22;6424;48.520;11.228;2024-01-06T13:22:05;4.00;99.90
12720;DHT22;6424;48.520;11.228;2024-01-06T13:24:49;4.00;99.90
12720;DHT22;6424;48.520;11.228;2024-01-06T13:27:33;4.00;99.90
12720;DHT22;6424;48.520;11.228;2024-01-06T13:30:17;4.00;99.90
12720;DHT22;6424;48.520;11.228;2024-01-06T13:33:01;4.00;99.90
12720;DHT22;6424;48.520;11.228;2024-01-06T13:35:45;4.00;99.90
12720;DHT22;6424;48.520;11.228;2024-01-06T13:38:29;4.00;99.90
12720;DHT22;6424;48.520;11.228;2024-01-06T13:41:14;4.00;99.90
12720;DHT22;6424;48.520;11.228;2024-01-06T13:43:58;4.00;99.90
12720;DHT22;6424;48.520;11.228;2024-01-06T13:46:42;4.00;99.90
12720;DHT22;6424;48.520;11.228;2024-01-06T13:49:28;4.00;99.90
12720;DHT22;6424;48.520;11.228;2024-01-06T13:52:13;4.00;99.90
12720;DHT22;6424;48.520;11.228;2024-01-06T13:54:57;4.10;99.90
12720;DHT22;6424;48.520;11.228;2024-01-06T13:57:42;4.10;99.90
12720;DHT22;6424;48.520;11.228;2024-01-06T14:00:26;4.00;99.90
12720;DHT22;6424;48.520;11.228;2024-01-06T14:03:11;3.90;99.90
12720;DHT22;6424;48.520;11.228;2024-01-06T14:05:56;3.90;99.90
12720;DHT22;6424;48.520;11.228;2024-01-06T14:08:40;3.80;99.90
12720;DHT22;6424;48.520;11.228;2024-01-06T14:11:26;3.70;99.90
12720;DHT22;6424;48.520;11.228;2024-01-06T14:14:10;3.70;99.90
12720;DHT22;6424;48.520;11.228;2024-01-06T14:16:54;3.70;99.90
12720;DHT22;6424;48.520;11.228;2024-01-06T14:19:38;3.70;99.90
12720;DHT22;6424;48.520;11.228;2024-01-06T14:22:23;3.70;99.90
12720;DHT22;6424;48.520;11.228;2024-01-06T14:25:07;3.80;99.90
12720;DHT22;6424;48.520;11.228;2024-01-06T14:27:52;3.80;99.90
12720;DHT22;6424;48.520;11.228;2024-01-06T14:30:36;3.80;99.90
12720;DHT22;6424;48.520;11.228;2024-01-06T14:33:20;3.90;99.90
12720;DHT22;6424;48.520;11.228;2024-01-06T14:36:06;3.90;99.90
12720;DHT22;6424;48.520;11.228;2024-01-06T14:38:50;3.90;99.90
12720;DHT22;6424;48.520;11.228;2024-01-06T14:41:36;3.90;99.90
12720;DHT22;6424;48.520;11.228;2024-01-06T14:44:20;4.00;99.90
12720;DHT22;6424;48.520;11.228;2024-01-06T14:47:05;3.90;99.90
12720;DHT22;6424;48.520;11.228;2024-01-06T14:49:49;4.00;99.90
12720;DHT22;6424;48.520;11.228;2024-01-06T14:52:34;4.00;99.90
12720;DHT22;6424;48.520;11.228;2024-01-06T14:55:18;3.90;99.90
12720;DHT22;6424;48.520;11.228;2024-01-06T14:58:02;4.00;99.90
12720;DHT22;6424;48.520;11.228;2024-01-06T15:00:47;4.00;99.90
12720;DHT22;6424;48.520;11.228;2024-01-06T15:03:31;4.00;99.90
12720;DHT22;6424;48.520;11.228;2024-01-06T15:06:16;4.00;99.90
12720;DHT22;6424;48.520;11.228;2024-01-06T15:09:01;4.00;99.90
12720;DHT22;6424;48.520;11.228;2024-01-06T15:11:45;4.00;99.90
12720;DHT22;6424;48.520;11.228;2024-01-06T15:14:30;4.00;99.90
12720;DHT22;6424;48.520;11.228;2024-01-06T15:17:14;3.90;99.90
12720;DHT22;6424;48.520;11.228;2024-01-06T15:19:58;3.90;99.90
12720;DHT22;6424;48.520;11.228;2024-01-06T15:22:43;3.90;99.90
12720;DHT22;6424;48.520;11.228;2024-01-06T15:25:27;3.90;99.90
12720;DHT22;6424;48.520;11.228;2024-01-06T15:28:11;3.90;99.90
12720;DHT22;6424;48.520;11.228;2024-01-06T15:30:56;3.90;99.90
12720;DHT22;6424;48.520;11.228;2024-01-06T15:33:42;3.80;99.90
12720;DHT22;6424;48.520;11.228;2024-01-06T15:36:26;3.80;99.90
12720;DHT22;6424;48.520;11.228;2024-01-06T15:39:10;3.80;99.90
12720;DHT22;6424;48.520;11.228;2024-01-06T15:41:54;3.80;99.90
12720;DHT22;6424;48.520;11.228;2024-01-06T15:44:39;3.80;99.90
12720;DHT22;6424;48.520;11.228;2024-01-06T15:47:23;3.80;99.90
12720;DHT22;6424;48.520;11.228;2024-01-06T15:50:07;3.80;99.90
12720;DHT22;6424;48.520;11.228;2024-01-06T15:52:52;3.70;99.90
12720;DHT22;6424;48.520;11.228;2024-01-06T15:55:36;3.70;99.90
12720;DHT22;6424;48.520;11.228;2024-01-06T15:58:22;3.70;99.90
12720;DHT22;6424;48.520;11.228;2024-01-06T16:01:06;3.70;99.90
12720;DHT22;6424;48.520;11.228;2024-01-06T16:03:50;3.60;99.90
12720;DHT22;6424;48.520;11.228;2024-01-06T16:06:34;3.60;99.90
12720;DHT22;6424;48.520;11.228;2024-01-06T16:09:18;3.60;99.90
12720;DHT22;6424;48.520;11.228;2024-01-06T16:12:05;3.60;99.90
12720;DHT22;6424;48.520;11.228;2024-01-06T16:14:50;3.60;99.90
12720;DHT22;6424;48.520;11.228;2024-01-06T16:17:34;3.60;99.90
12720;DHT22;6424;48.520;11.228;2024-01-06T16:20:19;3.60;99.90
12720;DHT22;6424;48.520;11.228;2024-01-06T16:23:03;3.60;99.90
12720;DHT22;6424;48.520;11.228;2024-01-06T16:25:48;3.50;99.90
12720;DHT22;6424;48.520;11.228;2024-01-06T16:28:32;3.50;99.90
12720;DHT22;6424;48.520;11.228;2024-01-06T16:31:17;3.50;99.90
12720;DHT22;6424;48.520;11.228;2024-01-06T16:34:02;3.50;99.90
12720;DHT22;6424;48.520;11.228;2024-01-06T16:36:46;3.50;99.90
12720;DHT22;6424;48.520;11.228;2024-01-06T16:39:31;3.50;99.90
12720;DHT22;6424;48.520;11.228;2024-01-06T16:42:16;3.50;99.90
12720;DHT22;6424;48.520;11.228;2024-01-06T16:45:00;3.50;99.90
12720;DHT22;6424;48.520;11.228;2024-01-06T16:47:45;3.50;99.90
12720;DHT22;6424;48.520;11.228;2024-01-06T16:50:29;3.50;99.90
12720;DHT22;6424;48.520;11.228;2024-01-06T16:53:13;3.50;99.90
12720;DHT22;6424;48.520;11.228;2024-01-06T16:55:58;3.50;99.90
12720;DHT22;6424;48.520;11.228;2024-01-06T16:58:42;3.50;99.90
12720;DHT22;6424;48.520;11.228;2024-01-06T17:01:27;3.50;99.90
12720;DHT22;6424;48.520;11.228;2024-01-06T17:04:12;3.50;99.90
12720;DHT22;6424;48.520;11.228;2024-01-06T17:06:56;3.50;99.90
12720;DHT22;6424;48.520;11.228;2024-01-06T17:09:43;3.50;99.90
12720;DHT22;6424;48.520;11.228;2024-01-06T17:12:30;3.50;99.90
12720;DHT22;6424;48.520;11.228;2024-01-06T17:15:15;3.50;99.90
12720;DHT22;6424;48.520;11.228;2024-01-06T17:17:59;3.50;99.90
12720;DHT22;6424;48.520;11.228;2024-01-06T17:20:43;3.50;99.90
12720;DHT22;6424;48.520;11.228;2024-01-06T17:23:28;3.50;99.90
12720;DHT22;6424;48.520;11.228;2024-01-06T17:26:12;3.50;99.90
12720;DHT22;6424;48.520;11.228;2024-01-06T17:28:56;3.50;99.90
12720;DHT22;6424;48.520;11.228;2024-01-06T17:31:40;3.50;99.90
12720;DHT22;6424;48.520;11.228;2024-01-06T17:34:25;3.50;99.90
12720;DHT22;6424;48.520;11.228;2024-01-06T17:37:10;3.50;99.90
12720;DHT22;6424;48.520;11.228;2024-01-06T17:39:54;3.50;99.90